Time;durP1;ratioP1;P1;durP2;ratioP2;P2;SDS_P1;SDS_P2;PMS_P1;PMS_P2;Temp;Humidity;BMP_temperature;BMP_pressure;BME280_temperature;BME280_humidity;BME280_pressure;Samples;Min_cycle;Max_cycle;Signal;HPM_P1;HPM_P2
2021/12/15 00:01:23;;;;;;;53.70;24.02;;;7.70;99.90;;;;;;4931876;28;20101;-58
2021/12/15 00:03:49;;;;;;;57.22;26.60;;;7.70;99.90;;;;;;4972452;28;20071;-59
2021/12/15 00:06:18;;;;;;;58.88;25.75;;;7.70;99.90;;;;;;4973079;28;20395;-58
2021/12/15 00:08:48;;;;;;;53.42;24.55;;;7.70;99.90;;;;;;4972803;28;20026;-58
2021/12/15 00:11:14;;;;;;;53.47;24.63;;;7.70;99.90;;;;;;4972909;28;20031;-57
2021/12/15 00:13:42;;;;;;;57.13;24.40;;;7.70;99.90;;;;;;4972067;28;20038;-59
2021/12/15 00:16:09;;;;;;;62.20;26.13;;;7.70;99.90;;;;;;4973185;28;20035;-58
2021/12/15 00:18:35;;;;;;;51.22;22.98;;;7.70;99.90;;;;;;4970664;28;20038;-59
2021/12/15 00:21:03;;;;;;;55.58;24.00;;;7.70;99.90;;;;;;4969070;28;20035;-59
2021/12/15 00:23:29;;;;;;;52.80;23.38;;;7.70;99.90;;;;;;4968427;28;20030;-57
2021/12/15 00:25:55;;;;;;;49.53;22.85;;;7.70;99.90;;;;;;4970380;28;20552;-57
2021/12/15 00:28:20;;;;;;;53.05;25.25;;;7.70;99.90;;;;;;4969822;28;20113;-58
2021/12/15 00:30:46;;;;;;;53.35;24.00;;;7.70;99.90;;;;;;4969128;28;20019;-58
2021/12/15 00:33:12;;;;;;;62.15;26.80;;;7.70;99.90;;;;;;4952684;28;20258;-59
2021/12/15 00:35:38;;;;;;;58.45;25.08;;;7.70;99.90;;;;;;4969343;28;20038;-57
2021/12/15 00:38:05;;;;;;;61.55;25.42;;;7.70;99.90;;;;;;4968760;28;20584;-57
2021/12/15 00:40:31;;;;;;;55.70;23.35;;;7.70;99.90;;;;;;4965982;28;20529;-58
2021/12/15 00:42:58;;;;;;;52.15;22.17;;;7.70;99.90;;;;;;4971530;28;22134;-59
2021/12/15 00:45:24;;;;;;;48.70;21.40;;;7.70;99.90;;;;;;4968595;28;20027;-58
2021/12/15 00:47:50;;;;;;;66.28;25.95;;;7.70;99.90;;;;;;4967044;28;20169;-57
2021/12/15 00:50:19;;;;;;;50.45;22.73;;;7.70;99.90;;;;;;4951424;28;20109;-58
2021/12/15 00:52:46;;;;;;;57.90;23.05;;;7.80;99.90;;;;;;4946279;28;20039;-55
2021/12/15 00:55:18;;;;;;;54.60;22.15;;;7.70;99.90;;;;;;4961434;28;20035;-56
2021/12/15 00:57:45;;;;;;;50.22;22.67;;;7.70;99.90;;;;;;4962435;28;20046;-59
2021/12/15 01:00:17;;;;;;;47.53;22.13;;;7.80;99.90;;;;;;4945672;28;20035;-57
2021/12/15 01:02:43;;;;;;;54.40;23.40;;;7.80;99.90;;;;;;4937437;28;20026;-59
2021/12/15 01:05:10;;;;;;;55.97;23.15;;;7.80;99.90;;;;;;4963126;28;20022;-59
2021/12/15 01:07:36;;;;;;;52.65;23.63;;;7.80;99.90;;;;;;4964647;28;20109;-59
2021/12/15 01:10:03;;;;;;;56.00;24.35;;;7.80;99.90;;;;;;4961362;28;20206;-58
2021/12/15 01:14:29;;;;;;;59.33;24.15;;;7.80;99.90;;;;;;4963215;28;20508;-58
2021/12/15 01:20:47;;;;;;;45.30;22.17;;;7.80;99.90;;;;;;4964705;28;20058;-57
2021/12/15 01:23:17;;;;;;;52.38;21.42;;;7.80;99.90;;;;;;4963346;28;20034;-55
2021/12/15 01:25:54;;;;;;;52.83;22.25;;;7.80;99.90;;;;;;4965816;28;20027;-57
2021/12/15 01:28:21;;;;;;;45.13;21.27;;;7.80;99.90;;;;;;4964507;28;20364;-59
2021/12/15 01:30:48;;;;;;;48.60;22.33;;;7.80;99.90;;;;;;4962630;28;20046;-58
2021/12/15 01:33:15;;;;;;;51.25;21.75;;;7.80;99.90;;;;;;4963927;28;20971;-58
2021/12/15 01:35:44;;;;;;;46.80;21.05;;;7.80;99.90;;;;;;4943910;28;20033;-58
2021/12/15 01:38:11;;;;;;;44.92;21.33;;;7.80;99.90;;;;;;4964607;28;20382;-58
2021/12/15 01:40:40;;;;;;;51.10;21.90;;;7.80;99.90;;;;;;4963662;28;20553;-57
2021/12/15 01:43:18;;;;;;;42.80;19.63;;;7.90;99.90;;;;;;4963635;28;20078;-58
2021/12/15 01:48:32;;;;;;;52.95;22.42;;;7.90;99.90;;;;;;4968034;28;20444;-58
2021/12/15 01:50:59;;;;;;;52.97;22.65;;;7.80;99.90;;;;;;4969345;28;20019;-56
2021/12/15 01:53:25;;;;;;;48.33;21.75;;;7.80;99.90;;;;;;4950137;28;20572;-58
2021/12/15 01:55:52;;;;;;;48.45;21.45;;;7.80;99.90;;;;;;4960519;28;20037;-58
2021/12/15 01:58:17;;;;;;;48.58;20.08;;;7.80;99.90;;;;;;4968144;28;20488;-56
2021/12/15 02:00:47;;;;;;;47.60;20.33;;;7.80;99.90;;;;;;4951459;28;20049;-57
2021/12/15 02:03:14;;;;;;;49.70;20.48;;;7.80;99.90;;;;;;4939447;28;20126;-59
2021/12/15 02:05:40;;;;;;;43.42;20.05;;;7.80;99.90;;;;;;4967584;28;20035;-59
2021/12/15 02:08:07;;;;;;;46.15;19.27;;;7.80;99.90;;;;;;4966680;28;20035;-58
2021/12/15 02:10:36;;;;;;;48.47;19.95;;;7.80;99.90;;;;;;4967494;28;20039;-59
2021/12/15 02:13:06;;;;;;;45.03;20.08;;;7.80;99.90;;;;;;4962230;28;20041;-56
2021/12/15 02:15:36;;;;;;;45.75;20.05;;;7.80;99.90;;;;;;4965230;28;20485;-57
2021/12/15 02:18:04;;;;;;;49.55;22.27;;;7.80;99.90;;;;;;4968666;28;20035;-59
2021/12/15 02:20:40;;;;;;;45.75;21.02;;;7.80;99.90;;;;;;4967319;28;20404;-59
2021/12/15 02:23:09;;;;;;;45.25;19.42;;;7.80;99.90;;;;;;4965791;28;20054;-58
2021/12/15 02:25:35;;;;;;;44.42;18.85;;;7.80;99.90;;;;;;4966395;28;20030;-58
2021/12/15 02:28:03;;;;;;;41.70;18.67;;;7.80;99.90;;;;;;4968392;28;20578;-58
2021/12/15 02:33:25;;;;;;;42.40;19.17;;;7.80;99.90;;;;;;4965578;28;20077;-57
2021/12/15 02:38:42;;;;;;;38.47;16.45;;;7.70;99.90;;;;;;4962542;28;20154;-58
2021/12/15 02:41:19;;;;;;;42.00;18.02;;;7.80;99.90;;;;;;4967644;28;20047;-59
2021/12/15 02:43:56;;;;;;;36.28;18.00;;;7.80;99.90;;;;;;4966899;28;20571;-58
2021/12/15 02:46:23;;;;;;;38.70;16.73;;;7.70;99.90;;;;;;4966777;28;20058;-56
2021/12/15 02:48:49;;;;;;;34.90;15.85;;;7.70;99.90;;;;;;4965808;28;20039;-58
2021/12/15 02:51:16;;;;;;;34.40;16.30;;;7.70;99.90;;;;;;4968337;28;20034;-59
2021/12/15 02:53:41;;;;;;;43.42;17.92;;;7.70;99.90;;;;;;4963180;28;20038;-58
2021/12/15 02:56:07;;;;;;;31.58;16.77;;;7.70;99.90;;;;;;4960598;28;20413;-58
2021/12/15 02:58:36;;;;;;;34.05;15.80;;;7.70;99.90;;;;;;4969114;28;20030;-57
2021/12/15 03:01:13;;;;;;;36.20;17.05;;;7.70;99.90;;;;;;4971677;28;20118;-57
2021/12/15 03:06:19;;;;;;;31.23;14.10;;;7.80;99.90;;;;;;4973093;28;20034;-59
2021/12/15 03:16:57;;;;;;;34.22;16.00;;;7.70;99.90;;;;;;4963070;28;20037;-58
2021/12/15 03:19:24;;;;;;;30.77;14.02;;;7.70;99.90;;;;;;4971027;28;20065;-59
2021/12/15 03:21:49;;;;;;;33.60;15.48;;;7.70;99.90;;;;;;4973271;28;20098;-59
2021/12/15 03:24:19;;;;;;;29.90;15.32;;;7.80;99.90;;;;;;4964617;28;20046;-59
2021/12/15 03:26:57;;;;;;;35.28;15.07;;;7.70;99.90;;;;;;4962765;28;20504;-59
2021/12/15 03:37:32;;;;;;;27.20;13.50;;;7.80;99.90;;;;;;4969977;28;20038;-57
2021/12/15 03:40:15;;;;;;;29.23;13.73;;;7.80;99.90;;;;;;4970990;28;20106;-59
2021/12/15 03:42:45;;;;;;;27.42;13.63;;;7.80;99.90;;;;;;4970252;28;20027;-57
2021/12/15 03:45:16;;;;;;;24.40;12.73;;;7.80;99.90;;;;;;4972293;28;20027;-58
2021/12/15 03:47:46;;;;;;;26.83;12.75;;;7.70;99.90;;;;;;4971228;28;20029;-57
2021/12/15 03:50:14;;;;;;;25.17;13.02;;;7.80;99.90;;;;;;4972541;28;20110;-59
2021/12/15 03:52:41;;;;;;;23.27;12.00;;;7.80;99.90;;;;;;4967475;28;20545;-59
2021/12/15 03:55:08;;;;;;;24.13;12.27;;;7.80;99.90;;;;;;4968983;28;20041;-58
2021/12/15 03:57:34;;;;;;;22.55;11.30;;;7.80;99.90;;;;;;4970621;28;20027;-59
2021/12/15 04:00:00;;;;;;;28.00;12.45;;;7.80;99.90;;;;;;4970636;28;20146;-59
2021/12/15 04:02:26;;;;;;;19.70;10.40;;;7.80;99.90;;;;;;4971404;28;20129;-57
2021/12/15 04:04:52;;;;;;;19.95;9.90;;;7.80;99.90;;;;;;4950737;28;20081;-57
2021/12/15 04:07:21;;;;;;;17.73;9.60;;;7.80;99.90;;;;;;4972026;28;20031;-59
2021/12/15 04:09:49;;;;;;;14.35;8.80;;;7.80;99.90;;;;;;4968040;28;20023;-59
2021/12/15 04:12:15;;;;;;;17.95;8.05;;;7.90;99.90;;;;;;4971032;28;20519;-57
2021/12/15 04:14:53;;;;;;;11.88;7.22;;;7.80;99.90;;;;;;4967548;28;20035;-58
2021/12/15 04:17:26;;;;;;;13.18;8.88;;;7.90;99.90;;;;;;4970471;28;20521;-59
2021/12/15 04:20:10;;;;;;;11.18;7.80;;;7.80;99.90;;;;;;4968046;28;20423;-58
2021/12/15 04:22:36;;;;;;;13.07;7.72;;;7.90;99.90;;;;;;4966082;28;20444;-58
2021/12/15 04:25:10;;;;;;;11.60;7.35;;;7.90;99.90;;;;;;4968653;28;20038;-58
2021/12/15 04:27:37;;;;;;;17.52;8.73;;;7.90;99.90;;;;;;4970588;28;20105;-58
2021/12/15 04:30:07;;;;;;;15.05;7.35;;;7.90;99.90;;;;;;4967524;28;20034;-59
2021/12/15 04:32:39;;;;;;;12.52;7.10;;;7.90;99.90;;;;;;4963374;28;20027;-59
2021/12/15 04:35:05;;;;;;;12.77;6.38;;;7.90;99.90;;;;;;4969204;28;20513;-59
2021/12/15 04:37:31;;;;;;;13.38;7.25;;;7.90;99.90;;;;;;4968012;28;20031;-58
2021/12/15 04:39:56;;;;;;;13.48;7.53;;;7.80;99.90;;;;;;4969413;28;20023;-59
2021/12/15 04:42:24;;;;;;;12.50;7.10;;;7.90;99.90;;;;;;4968180;28;20058;-57
2021/12/15 04:44:52;;;;;;;11.75;7.22;;;7.90;99.90;;;;;;4966964;28;20795;-58
2021/12/15 04:47:18;;;;;;;15.05;7.72;;;7.90;99.90;;;;;;4951607;28;20061;-59
2021/12/15 04:49:50;;;;;;;12.20;7.32;;;7.80;99.90;;;;;;4966521;28;20105;-57
2021/12/15 04:52:20;;;;;;;12.13;6.80;;;7.90;99.90;;;;;;4970290;28;20035;-59
2021/12/15 04:54:46;;;;;;;14.48;6.93;;;7.90;99.90;;;;;;4966906;28;20125;-58
2021/12/15 04:57:14;;;;;;;13.20;7.30;;;7.80;99.90;;;;;;4968674;28;20089;-58
2021/12/15 04:59:40;;;;;;;14.50;7.75;;;7.80;99.90;;;;;;4969984;28;20038;-58
2021/12/15 05:02:07;;;;;;;13.52;7.18;;;7.90;99.90;;;;;;4967271;28;20053;-58
2021/12/15 05:04:34;;;;;;;12.60;7.07;;;7.90;99.90;;;;;;4951703;28;20084;-57
2021/12/15 05:07:00;;;;;;;12.68;7.07;;;7.90;99.90;;;;;;4967297;28;20030;-59
2021/12/15 05:09:26;;;;;;;13.30;7.65;;;7.90;99.90;;;;;;4966632;28;20492;-58
2021/12/15 05:11:53;;;;;;;12.57;6.85;;;7.80;99.90;;;;;;4966655;28;20027;-58
2021/12/15 05:14:20;;;;;;;12.82;7.53;;;7.80;99.90;;;;;;4967710;28;20066;-59
2021/12/15 05:16:46;;;;;;;14.85;7.63;;;7.80;99.90;;;;;;4964909;28;20039;-58
2021/12/15 05:19:12;;;;;;;15.68;7.63;;;7.80;99.90;;;;;;4969554;28;20114;-59
2021/12/15 05:21:38;;;;;;;13.90;7.65;;;7.80;99.90;;;;;;4965316;28;20130;-59
2021/12/15 05:24:13;;;;;;;16.02;8.10;;;7.80;99.90;;;;;;4963933;28;20035;-59
2021/12/15 05:26:39;;;;;;;12.35;7.75;;;7.80;99.90;;;;;;4969859;28;20081;-58
2021/12/15 05:29:05;;;;;;;11.13;7.55;;;7.80;99.90;;;;;;4968573;28;20240;-58
2021/12/15 05:31:31;;;;;;;18.73;10.55;;;7.80;99.90;;;;;;4963098;28;20050;-58
2021/12/15 05:33:56;;;;;;;16.42;9.25;;;7.80;99.90;;;;;;4967587;28;20493;-59
2021/12/15 05:36:22;;;;;;;21.60;10.20;;;7.80;99.90;;;;;;4966562;28;20045;-59
2021/12/15 05:38:48;;;;;;;15.50;9.05;;;7.80;99.90;;;;;;4961080;28;20031;-59
2021/12/15 05:41:15;;;;;;;16.10;9.35;;;7.80;99.90;;;;;;4967337;28;20497;-59
2021/12/15 05:43:41;;;;;;;13.35;8.20;;;7.80;99.90;;;;;;4969070;28;20094;-59
2021/12/15 05:46:06;;;;;;;16.63;8.38;;;7.80;99.90;;;;;;4960656;28;20749;-59
2021/12/15 05:48:32;;;;;;;16.38;8.85;;;7.80;99.90;;;;;;4967894;28;20019;-58
2021/12/15 05:50:58;;;;;;;12.90;8.48;;;7.70;99.90;;;;;;4968569;28;20084;-54
2021/12/15 05:53:24;;;;;;;27.65;12.43;;;7.70;99.90;;;;;;4968788;28;20038;-59
2021/12/15 05:55:50;;;;;;;25.38;13.00;;;7.70;99.90;;;;;;4970157;28;20026;-58
2021/12/15 05:58:16;;;;;;;52.10;23.15;;;7.70;99.90;;;;;;4968769;28;20045;-59
2021/12/15 06:00:43;;;;;;;19.45;10.57;;;7.70;99.90;;;;;;4969481;28;20038;-57
2021/12/15 06:03:09;;;;;;;20.40;11.90;;;7.70;99.90;;;;;;4967250;28;20026;-59
2021/12/15 06:05:36;;;;;;;28.23;15.27;;;7.70;99.90;;;;;;4949211;28;20057;-59
2021/12/15 06:08:03;;;;;;;17.95;12.18;;;7.70;99.90;;;;;;4965207;28;20030;-57
2021/12/15 06:10:30;;;;;;;35.78;21.98;;;7.70;99.90;;;;;;4969017;28;20030;-58
2021/12/15 06:12:58;;;;;;;34.05;19.67;;;7.70;99.90;;;;;;4964842;28;20057;-58
2021/12/15 06:15:26;;;;;;;23.48;13.52;;;7.70;99.90;;;;;;4966473;28;20081;-59
2021/12/15 06:17:56;;;;;;;18.77;9.98;;;7.70;99.90;;;;;;4968794;28;20039;-58
2021/12/15 06:20:22;;;;;;;19.95;11.23;;;7.70;99.90;;;;;;4967663;28;20026;-59
2021/12/15 06:22:48;;;;;;;17.13;10.10;;;7.70;99.90;;;;;;4964763;28;20026;-59
2021/12/15 06:25:13;;;;;;;18.13;10.52;;;7.70;99.90;;;;;;4965499;28;20213;-58
2021/12/15 06:27:40;;;;;;;17.55;9.95;;;7.70;99.90;;;;;;4967121;28;20098;-59
2021/12/15 06:30:07;;;;;;;15.57;8.82;;;7.70;99.90;;;;;;4966550;28;20015;-59
2021/12/15 06:32:34;;;;;;;16.02;8.20;;;7.70;99.90;;;;;;4963568;28;20035;-58
2021/12/15 06:35:00;;;;;;;13.50;8.20;;;7.70;99.90;;;;;;4965974;28;20043;-58
2021/12/15 06:37:26;;;;;;;18.35;9.20;;;7.70;99.90;;;;;;4969791;28;20035;-59
2021/12/15 06:39:51;;;;;;;17.50;9.18;;;7.70;99.90;;;;;;4968710;28;20113;-58
2021/12/15 06:42:17;;;;;;;14.57;8.50;;;7.70;99.90;;;;;;4966307;28;20034;-60
2021/12/15 06:44:43;;;;;;;15.45;8.85;;;7.70;99.90;;;;;;4965661;28;20073;-60
2021/12/15 07:00:41;;;;;;;19.88;11.63;;;7.70;99.90;;;;;;4962728;28;20043;-59
2021/12/15 07:03:07;;;;;;;17.50;9.75;;;7.70;99.90;;;;;;4957668;28;20050;-58
2021/12/15 07:05:34;;;;;;;28.00;17.23;;;7.70;99.90;;;;;;4954184;28;20043;-59
2021/12/15 07:08:02;;;;;;;33.03;19.88;;;7.70;99.90;;;;;;4966277;28;20035;-58
2021/12/15 07:10:31;;;;;;;12.18;8.18;;;7.60;99.90;;;;;;4938935;28;20037;-58
2021/12/15 07:12:58;;;;;;;14.65;7.13;;;7.60;99.90;;;;;;4965449;28;20123;-56
2021/12/15 07:15:24;;;;;;;12.95;7.50;;;7.60;99.90;;;;;;4967459;28;20058;-59
2021/12/15 07:17:53;;;;;;;14.25;8.95;;;7.60;99.90;;;;;;4964009;28;20023;-59
2021/12/15 07:22:48;;;;;;;13.45;8.30;;;7.60;99.90;;;;;;4968157;28;20027;-58
2021/12/15 07:25:15;;;;;;;15.98;8.52;;;7.60;99.90;;;;;;4968953;28;20035;-57
2021/12/15 07:27:41;;;;;;;15.57;8.52;;;7.60;99.90;;;;;;4964987;28;20105;-59
2021/12/15 07:30:08;;;;;;;19.27;8.95;;;7.60;99.90;;;;;;4962698;28;20081;-59
2021/12/15 07:32:34;;;;;;;15.63;9.63;;;7.60;99.90;;;;;;4963629;28;20035;-59
2021/12/15 07:34:59;;;;;;;27.25;13.02;;;7.60;99.90;;;;;;4965169;28;20050;-59
2021/12/15 07:37:25;;;;;;;21.30;11.95;;;7.60;99.90;;;;;;4968036;28;20035;-58
2021/12/15 07:39:57;;;;;;;24.88;13.77;;;7.60;99.90;;;;;;4964384;28;20448;-60
2021/12/15 07:42:32;;;;;;;21.75;13.20;;;7.60;99.90;;;;;;4960546;28;20257;-57
2021/12/15 07:44:59;;;;;;;43.50;25.10;;;7.60;99.90;;;;;;4967685;28;20031;-58
2021/12/15 07:47:24;;;;;;;33.83;17.40;;;7.60;99.90;;;;;;4969016;28;20030;-59
2021/12/15 07:49:50;;;;;;;19.00;9.95;;;7.60;99.90;;;;;;4966161;28;20046;-56
2021/12/15 07:52:16;;;;;;;18.50;10.00;;;7.60;99.90;;;;;;4971135;28;20037;-58
2021/12/15 07:54:41;;;;;;;17.98;9.55;;;7.60;99.90;;;;;;4976156;28;20062;-58
2021/12/15 07:57:10;;;;;;;14.90;9.55;;;7.70;99.90;;;;;;4972278;28;20109;-59
2021/12/15 07:59:36;;;;;;;17.33;9.90;;;7.70;99.90;;;;;;4969084;28;20703;-59
2021/12/15 08:02:02;;;;;;;18.98;10.15;;;7.70;99.90;;;;;;4965485;28;20123;-59
2021/12/15 08:04:28;;;;;;;14.77;8.93;;;7.70;99.90;;;;;;4959241;28;20031;-58
2021/12/15 08:06:54;;;;;;;16.42;9.38;;;7.70;99.90;;;;;;4969595;28;20093;-59
2021/12/15 08:09:22;;;;;;;18.23;10.40;;;7.70;99.90;;;;;;4969252;28;20684;-57
2021/12/15 08:11:48;;;;;;;17.27;9.90;;;7.70;99.90;;;;;;4971243;28;20030;-58
2021/12/15 08:14:15;;;;;;;17.90;9.18;;;7.80;99.90;;;;;;4969653;28;20038;-59
2021/12/15 08:16:41;;;;;;;18.67;9.55;;;7.80;99.90;;;;;;4971594;28;20051;-59
2021/12/15 08:19:08;;;;;;;15.80;9.18;;;7.80;99.90;;;;;;4968003;28;20035;-59
2021/12/15 08:21:34;;;;;;;20.27;10.07;;;7.80;99.90;;;;;;4966709;28;20054;-58
2021/12/15 08:24:00;;;;;;;18.23;9.68;;;7.80;99.90;;;;;;4962568;28;20039;-59
2021/12/15 08:26:27;;;;;;;19.45;10.90;;;7.80;99.90;;;;;;4965030;28;20121;-59
2021/12/15 08:28:53;;;;;;;16.63;9.43;;;7.80;99.90;;;;;;4961808;28;20027;-57
2021/12/15 08:31:20;;;;;;;17.70;10.25;;;7.90;99.90;;;;;;4966624;28;20456;-58
2021/12/15 08:33:46;;;;;;;19.98;10.68;;;7.80;99.90;;;;;;4960086;28;20037;-59
2021/12/15 08:36:13;;;;;;;16.30;9.98;;;7.90;99.90;;;;;;4964701;28;20117;-60
2021/12/15 08:38:42;;;;;;;15.80;8.88;;;7.90;99.90;;;;;;4973373;28;20538;-58
2021/12/15 08:41:11;;;;;;;14.15;7.93;;;7.90;99.90;;;;;;4974191;28;20030;-59
2021/12/15 08:43:37;;;;;;;18.15;8.88;;;7.90;99.90;;;;;;4970134;28;20149;-59
2021/12/15 08:46:07;;;;;;;14.48;8.70;;;7.90;99.90;;;;;;4972057;28;20471;-58
2021/12/15 08:48:35;;;;;;;12.52;7.72;;;7.90;99.90;;;;;;4971940;28;20438;-59
2021/12/15 08:51:03;;;;;;;25.85;14.13;;;8.00;99.90;;;;;;4971937;28;20104;-58
2021/12/15 08:53:29;;;;;;;23.23;13.98;;;8.00;99.90;;;;;;4970659;28;20031;-59
2021/12/15 08:55:55;;;;;;;15.10;9.90;;;8.10;99.90;;;;;;4970317;28;20045;-59
2021/12/15 08:58:21;;;;;;;20.27;15.90;;;8.20;99.90;;;;;;4970566;28;20034;-59
2021/12/15 09:00:51;;;;;;;12.45;9.18;;;8.20;99.90;;;;;;4971363;28;20023;-60
2021/12/15 09:03:17;;;;;;;11.02;6.65;;;8.20;99.90;;;;;;4970689;28;20492;-58
2021/12/15 09:05:44;;;;;;;22.92;8.23;;;8.20;99.90;;;;;;4955131;28;20295;-58
2021/12/15 09:08:12;;;;;;;11.98;6.15;;;8.20;99.90;;;;;;4968806;28;20027;-58
2021/12/15 09:10:41;;;;;;;9.23;6.60;;;8.20;99.90;;;;;;4971496;28;20033;-59
2021/12/15 09:13:07;;;;;;;11.20;7.93;;;8.30;99.90;;;;;;4969925;28;20495;-58
2021/12/15 09:15:33;;;;;;;11.07;7.40;;;8.30;99.90;;;;;;4970054;28;20319;-58
2021/12/15 09:17:59;;;;;;;10.55;7.15;;;8.30;99.90;;;;;;4970236;28;20549;-59
2021/12/15 09:20:28;;;;;;;10.77;6.32;;;8.40;99.90;;;;;;4970373;28;20081;-60
2021/12/15 09:22:54;;;;;;;7.55;5.13;;;8.40;99.90;;;;;;4968652;28;20057;-60
2021/12/15 09:25:20;;;;;;;7.20;4.68;;;8.40;99.90;;;;;;4970464;28;20110;-59
2021/12/15 09:27:46;;;;;;;12.73;6.13;;;8.40;99.90;;;;;;4969197;28;20659;-60
2021/12/15 09:30:16;;;;;;;9.02;6.28;;;8.40;99.90;;;;;;4969079;28;20057;-59
2021/12/15 09:32:42;;;;;;;9.30;5.40;;;8.30;99.90;;;;;;4970069;28;20492;-59
2021/12/15 09:35:09;;;;;;;9.25;5.88;;;8.30;99.90;;;;;;4969878;28;20090;-58
2021/12/15 09:37:35;;;;;;;8.10;4.85;;;8.30;99.90;;;;;;4969922;28;20050;-60
2021/12/15 09:40:01;;;;;;;8.65;4.88;;;8.30;99.90;;;;;;4969176;28;20066;-60
2021/12/15 09:42:33;;;;;;;12.65;6.20;;;8.30;99.90;;;;;;4968454;28;20066;-58
2021/12/15 09:45:15;;;;;;;10.20;5.53;;;8.30;99.90;;;;;;4963970;28;20035;-58
2021/12/15 09:48:00;;;;;;;10.18;6.82;;;8.30;99.90;;;;;;4970077;28;20026;-60
2021/12/15 09:56:25;;;;;;;10.80;5.82;;;8.40;99.90;;;;;;4969253;28;20108;-59
2021/12/15 09:56:38;;;;;;;19.77;11.25;;;8.40;99.90;;;;;;4968029;28;20034;-59
2021/12/15 10:04:43;;;;;;;33.70;18.85;;;8.40;99.90;;;;;;4968576;28;20508;-59
2021/12/15 10:17:53;;;;;;;9.35;5.25;;;8.50;99.90;;;;;;4970353;28;20500;-59
2021/12/15 10:20:24;;;;;;;8.80;5.43;;;8.50;99.90;;;;;;4974040;28;20058;-59
2021/12/15 10:22:58;;;;;;;13.68;8.48;;;8.50;99.90;;;;;;4975469;28;20056;-60
2021/12/15 10:25:34;;;;;;;8.75;5.28;;;8.60;99.90;;;;;;4968843;28;20054;-58
2021/12/15 10:28:03;;;;;;;10.68;6.38;;;8.60;99.90;;;;;;4963598;28;20034;-59
2021/12/15 10:30:33;;;;;;;18.83;9.00;;;8.60;99.90;;;;;;4964153;28;20023;-58
2021/12/15 10:33:08;;;;;;;10.60;5.95;;;8.70;99.90;;;;;;4963876;28;20436;-60
2021/12/15 10:35:41;;;;;;;8.75;5.13;;;8.70;99.90;;;;;;4964525;28;20031;-60
2021/12/15 10:38:26;;;;;;;8.95;5.13;;;8.70;99.90;;;;;;4927876;28;20051;-58
2021/12/15 10:40:57;;;;;;;7.85;4.57;;;8.70;99.90;;;;;;4964370;28;20061;-58
2021/12/15 10:43:28;;;;;;;11.00;5.07;;;8.70;99.90;;;;;;4960166;28;20046;-60
2021/12/15 10:46:01;;;;;;;8.63;4.65;;;8.70;99.90;;;;;;4962723;28;20081;-59
2021/12/15 10:48:36;;;;;;;9.80;6.57;;;8.80;99.90;;;;;;4967233;28;20038;-59
2021/12/15 10:51:22;;;;;;;13.13;6.07;;;8.80;99.90;;;;;;4969236;28;20137;-58
2021/12/15 10:53:49;;;;;;;;;;;8.90;99.90;;;;;;4968089;28;20030;-60
2021/12/15 10:56:19;;;;;;;8.25;4.80;;;9.00;99.90;;;;;;4966075;28;19914;-60
2021/12/15 10:58:51;;;;;;;5.60;3.92;;;9.00;99.90;;;;;;4967477;28;20031;-60
2021/12/15 11:02:05;;;;;;;7.80;5.10;;;9.10;99.90;;;;;;4967973;28;20090;-60
2021/12/15 11:04:37;;;;;;;12.27;7.35;;;9.10;99.90;;;;;;4925181;29;20035;-59
2021/12/15 11:07:31;;;;;;;18.17;9.00;;;9.10;99.90;;;;;;4908005;29;20027;-57
2021/12/15 11:10:10;;;;;;;10.10;6.10;;;9.10;99.90;;;;;;4952185;28;20161;-57
2021/12/15 11:12:38;;;;;;;10.65;6.72;;;9.20;99.90;;;;;;4962704;28;20039;-57
2021/12/15 11:15:27;;;;;;;14.63;5.95;;;9.20;99.90;;;;;;4955767;28;20058;-60
2021/12/15 11:17:56;;;;;;;11.48;6.10;;;9.20;99.90;;;;;;4949937;28;20082;-58
2021/12/15 11:20:38;;;;;;;14.55;7.68;;;9.20;99.90;;;;;;4966232;28;20041;-57
2021/12/15 11:23:11;;;;;;;8.38;5.15;;;9.30;99.90;;;;;;4968743;28;20031;-60
2021/12/15 11:25:41;;;;;;;7.28;4.75;;;9.30;99.90;;;;;;4970961;28;20023;-60
2021/12/15 11:28:10;;;;;;;10.13;5.32;;;9.30;99.90;;;;;;4969571;28;20027;-57
2021/12/15 11:30:41;;;;;;;6.88;4.00;;;9.30;99.90;;;;;;4971027;28;20023;-59
2021/12/15 11:33:32;;;;;;;5.35;3.90;;;9.40;99.90;;;;;;4969658;28;20030;-60
2021/12/15 11:36:00;;;;;;;7.72;4.10;;;9.40;99.90;;;;;;4970206;28;20025;-60
2021/12/15 11:38:28;;;;;;;7.70;3.88;;;9.40;99.90;;;;;;4970906;28;20115;-59
2021/12/15 11:40:54;;;;;;;6.53;3.53;;;9.50;99.90;;;;;;4971385;28;20070;-60
2021/12/15 11:43:39;;;;;;;9.05;4.28;;;9.50;99.90;;;;;;4970812;28;20062;-58
2021/12/15 11:46:15;;;;;;;16.40;6.85;;;9.50;99.90;;;;;;4968674;28;20022;-59
2021/12/15 11:48:41;;;;;;;12.88;6.35;;;9.50;99.90;;;;;;4970659;28;20030;-60
2021/12/15 11:51:08;;;;;;;20.90;9.25;;;9.40;99.90;;;;;;4971132;28;20035;-57
2021/12/15 11:53:41;;;;;;;9.98;5.25;;;9.40;99.90;;;;;;4972163;28;20046;-60
2021/12/15 11:56:28;;;;;;;43.55;19.67;;;9.40;99.90;;;;;;4970861;28;20030;-60
2021/12/15 11:58:58;;;;;;;14.68;6.10;;;9.40;99.90;;;;;;4967976;28;20139;-58
2021/12/15 12:01:37;;;;;;;7.18;5.00;;;9.40;99.90;;;;;;4971483;28;20412;-59
2021/12/15 12:04:19;;;;;;;9.93;5.32;;;9.40;99.90;;;;;;4969366;28;20037;-60
2021/12/15 12:06:48;;;;;;;7.68;4.50;;;9.30;99.90;;;;;;4975396;28;20027;-60
2021/12/15 12:09:15;;;;;;;6.05;4.28;;;9.40;99.90;;;;;;4970483;28;20390;-60
2021/12/15 12:11:44;;;;;;;11.00;7.25;;;9.40;99.90;;;;;;4967681;28;20039;-60
2021/12/15 12:14:18;;;;;;;16.92;10.45;;;9.40;99.90;;;;;;4948693;28;20046;-59
2021/12/15 12:16:45;;;;;;;11.65;6.60;;;9.40;99.90;;;;;;4966349;28;20500;-58
2021/12/15 12:19:13;;;;;;;28.77;17.25;;;9.40;99.90;;;;;;4968138;28;20069;-60
2021/12/15 12:21:40;;;;;;;19.10;9.70;;;9.30;99.90;;;;;;4966544;28;20070;-60
2021/12/15 12:24:06;;;;;;;8.85;5.38;;;9.30;99.90;;;;;;4967592;28;20026;-59
2021/12/15 12:26:34;;;;;;;6.82;4.60;;;9.40;99.90;;;;;;4971289;28;20065;-60
2021/12/15 12:29:01;;;;;;;6.20;4.03;;;9.30;99.90;;;;;;4968458;28;20125;-59
2021/12/15 12:31:28;;;;;;;6.72;3.88;;;9.40;99.90;;;;;;4969233;28;20060;-60
2021/12/15 12:33:54;;;;;;;9.10;3.90;;;9.40;99.90;;;;;;4969673;28;20090;-59
2021/12/15 12:36:28;;;;;;;6.97;4.80;;;9.50;99.90;;;;;;4970203;28;20049;-60
2021/12/15 12:38:58;;;;;;;13.38;5.40;;;9.40;99.90;;;;;;4969658;28;20776;-59
2021/12/15 12:41:39;;;;;;;13.15;8.20;;;9.50;99.90;;;;;;4972018;28;20114;-59
2021/12/15 12:44:06;;;;;;;9.95;5.03;;;9.50;99.90;;;;;;4968828;28;20039;-59
2021/12/15 12:46:46;;;;;;;8.95;5.00;;;9.50;99.90;;;;;;4951961;28;20445;-59
2021/12/15 13:01:04;;;;;;;7.57;4.03;;;9.60;99.90;;;;;;4969684;28;20050;-58
2021/12/15 13:03:43;;;;;;;6.82;3.85;;;9.60;99.90;;;;;;4935373;28;20113;-60
2021/12/15 13:06:15;;;;;;;8.18;4.05;;;9.50;99.90;;;;;;4969339;28;20033;-60
2021/12/15 13:08:42;;;;;;;14.70;3.58;;;9.50;99.90;;;;;;4955546;28;20082;-60
2021/12/15 13:11:15;;;;;;;7.22;3.47;;;9.60;99.90;;;;;;4949855;28;20030;-59
2021/12/15 13:14:05;;;;;;;4.38;3.47;;;9.60;99.90;;;;;;4968500;28;20029;-57
2021/12/15 13:16:50;;;;;;;6.85;3.80;;;9.60;99.90;;;;;;4968078;28;20038;-58
2021/12/15 13:19:29;;;;;;;11.93;7.22;;;9.60;99.90;;;;;;4969535;28;20173;-58
2021/12/15 13:22:42;;;;;;;35.53;20.17;;;9.60;99.90;;;;;;4968811;28;20030;-59
2021/12/15 13:31:16;;;;;;;33.13;15.15;;;9.50;99.90;;;;;;4969111;28;20118;-57
2021/12/15 13:33:44;;;;;;;36.08;17.05;;;9.40;99.90;;;;;;4966659;28;20042;-59
2021/12/15 13:36:13;;;;;;;26.60;13.57;;;9.40;99.90;;;;;;4968792;28;20030;-59
2021/12/15 13:39:03;;;;;;;30.02;15.13;;;9.40;99.90;;;;;;4965461;28;20026;-60
2021/12/15 13:42:08;;;;;;;32.08;16.40;;;9.40;99.90;;;;;;4967925;28;20392;-57
2021/12/15 13:44:47;;;;;;;26.38;14.70;;;9.40;99.90;;;;;;4965506;28;20066;-58
2021/12/15 13:47:15;;;;;;;18.55;9.63;;;9.40;99.90;;;;;;4959489;28;20117;-60
2021/12/15 13:49:54;;;;;;;20.10;11.07;;;9.40;99.90;;;;;;4968866;28;20388;-59
2021/12/15 13:52:31;;;;;;;14.63;8.25;;;9.40;99.90;;;;;;4969507;28;20062;-59
2021/12/15 13:55:14;;;;;;;19.80;11.60;;;9.40;99.90;;;;;;4966045;28;20113;-58
2021/12/15 13:57:45;;;;;;;25.02;15.55;;;9.40;99.90;;;;;;4969492;28;20069;-60
2021/12/15 14:00:29;;;;;;;21.10;12.10;;;9.40;99.90;;;;;;4968794;28;20027;-60
2021/12/15 14:02:54;;;;;;;18.38;10.98;;;9.40;99.90;;;;;;4968226;28;20609;-57
2021/12/15 14:05:25;;;;;;;14.65;8.27;;;9.40;99.90;;;;;;4968080;28;20114;-60
2021/12/15 14:07:58;;;;;;;13.40;7.60;;;9.40;99.90;;;;;;4969288;28;20069;-58
2021/12/15 14:10:24;;;;;;;13.30;8.57;;;9.40;99.90;;;;;;4967627;28;20768;-59
2021/12/15 14:12:57;;;;;;;11.75;6.10;;;9.40;99.90;;;;;;4967200;28;20086;-58
2021/12/15 14:15:37;;;;;;;9.93;6.40;;;9.40;99.90;;;;;;4936886;28;20054;-58
2021/12/15 14:18:03;;;;;;;7.13;5.18;;;9.40;99.90;;;;;;4967277;28;20041;-59
2021/12/15 14:20:31;;;;;;;10.88;5.72;;;9.40;99.90;;;;;;4968558;28;20042;-59
2021/12/15 14:23:03;;;;;;;8.38;5.30;;;9.40;99.90;;;;;;4968586;28;20110;-60
2021/12/15 14:25:33;;;;;;;8.27;6.13;;;9.40;99.90;;;;;;4967108;28;20121;-60